Pomonok, New York
Current Conditions -  °F | °C
As of 6:51 AM on Thursday 25 Dec 2014 (Local Time) from KLGA Reporting Station
Light Rain Light Rain  
Wind Chill: 51°   Ceiling: 7500
Heat Index: 51°   Visibility: 10mi
Dew Point: 42°   Wind: 16mph
Humidity: 71%   Direction: 280°W
Pressure: 29.63"   Gusts: 30mph
Location:  40.7391°N, 73.7931°W
Report Text: KLGA 251151Z 28014G26KT 10SM -RA FEW018 SCT045 BKN075 OVC140 11/06 A2963 RMK AO2 SLP034 P0002 60007 70071 T01060056 10172 20106 53051 $
Loading
Personal Weather Stations






























Interactive Weather Map New forecast layout! Learn more

10-Day Weather Forecast

Advertisements
Track Severe Weather on mobile